Share

New Tokyo, Japan

11:18 PM JST on April 24, 2014 (GMT +0900)
New Tokyo International (Narita) (RJAA) Elev 144 ft | 35.77 °N, 140.39 °E | Change Station

Current weather conditions updated 18 minutes ago

Clear
Clear
48 °F
Feels Like 48 °F
N
4
Wind Variable Wind from ESE
Sunrise 4:55 AM
Sunset 6:18 PM
Moon Waning Crescent

Tomorrow is forecast to be nearly the same temperature as today.

Pressure 30.27 in
Visibility -9999.0 miles
Clouds
Dew Point 45 °F
Humidity 87%
Rainfall 0.00 in
Snow Depth Not available.
UV Not available.
Pollen Not available.
Air Quality Not available.
Flu Activity Not available.
METAR RJAA 241400Z 12003KT CAVOK 09/07 Q1025 NOSIG RMK A3027

More Conditions Fewer Conditions

Pressure 30.27 in
Visibility -9999.0 miles
Clouds
Dew Point 45 °F
Humidity 87%
Rainfall 0.00 in
Snow Depth Not available.
UV Not available.
Pollen Not available.
Air Quality Not available.
Flu Activity Not available.
METAR RJAA 241400Z 12003KT CAVOK 09/07 Q1025 NOSIG RMK A3027

More Conditions Fewer Conditions

10-Day Weather Forecast

Almanac

Astronomy

Apr. 24, 2014 Rise Set
Actual Time 4:55 AM JST 6:18 PM JST
Civil Twilight 4:28 AM JST 6:45 PM JST
Nautical Twilight 3:56 AM JST 7:17 PM JST
Astronomical Twilight 3:22 AM JST 7:51 PM JST
Moon 1:29 AM JST 1:02 PM JST
Length of Visible Light 14h 17m
Length of Day
13h 23m
Tomorrow will be 2m 3s longer.
Waning Crescent, 25% of the Moon is Illuminated
Today
Waning Crescent
Apr 29
New
May 6
First Quarter
May 14
Full
May 21
Last Quarter

Yesterday's Extremes

Country Highs Country Lows

Community

  • Clouds mov'n in
    Clouds mov'n in
  • Stacked
    Stacked
  • clouds approaching Red Sox Nation
    clouds approaching Red Sox Nation
  • Balance
    Balance
  • Citysky
    Citysky

WunderPhotos

Upload Photos

1,704,619 photos uploaded!

WunderBlogs® & News

Nearby

Snow Depth

Not available.

Coastal Water Temperatures

Place Temperature
No Stations Reporting

Earthquake Activity

City Distance Mag. Time & Date
No recent earthquake activity has been reported nearby.
Minimum magnitude displayed is 2.5.

Nearby Weather Stations

Station Location Temp. Dew Point Humidity Wind Precip. Elev Updated Type
Funabashi, Funabashi 56.2 °F 48 °F 74% ESE  at  0.0 mph 0.00 in / hr 92 ft 11:18 PM JST Rapid Fire

Show More Stations Show Fewer Stations

What do you think?

We're not finished. Please let us know what you like, what you don't like, and what you are still missing.